createdAt,value
2019-05-12T00:02:08.673Z,101727.59
2019-05-12T00:04:35.353Z,101727.18
2019-05-12T00:07:02.101Z,101724.81
2019-05-12T00:09:28.772Z,101730.08
2019-05-12T00:11:55.549Z,101734.72
2019-05-12T00:14:22.286Z,101727.16
2019-05-12T00:16:49.239Z,101747.59
2019-05-12T00:19:17.920Z,101748.05
2019-05-12T00:21:48.143Z,101757.91
2019-05-12T00:24:14.614Z,101755.75
2019-05-12T00:26:41.518Z,101755.14
2019-05-12T00:29:08.452Z,101760.80
2019-05-12T00:31:35.253Z,101756.08
2019-05-12T00:34:02.047Z,101752.04
2019-05-12T00:36:29.842Z,101754.84
2019-05-12T00:38:58.061Z,101758.20
2019-05-12T00:41:25.018Z,101757.26
2019-05-12T00:43:51.817Z,101758.39
2019-05-12T00:46:18.589Z,101760.89
2019-05-12T00:48:45.300Z,101772.72
2019-05-12T00:51:11.975Z,101773.97
2019-05-12T00:53:43.138Z,101776.63
2019-05-12T00:56:08.532Z,101779.99
2019-05-12T00:58:35.371Z,101784.47
2019-05-12T01:01:02.178Z,101786.89
2019-05-12T01:03:28.851Z,101792.58
2019-05-12T01:05:57.706Z,101796.73
2019-05-12T01:08:24.156Z,101798.17
2019-05-12T01:10:50.830Z,101799.84
2019-05-12T01:13:18.646Z,101805.30
2019-05-12T01:15:48.031Z,101811.41
2019-05-12T01:18:14.382Z,101811.77
2019-05-12T01:20:41.090Z,101817.69
2019-05-12T01:23:08.468Z,101822.84
2019-05-12T01:25:35.794Z,101822.25
2019-05-12T01:28:02.616Z,101825.04
2019-05-12T01:30:29.402Z,101823.97
2019-05-12T01:32:58.211Z,101820.67
2019-05-12T01:35:27.803Z,101828.45
2019-05-12T01:37:54.072Z,101831.88
2019-05-12T01:40:20.773Z,101838.83
2019-05-12T01:42:48.403Z,101843.21
2019-05-12T01:45:15.239Z,101849.80
2019-05-12T01:47:41.936Z,101854.86
2019-05-12T01:50:09.414Z,101850.26
2019-05-12T01:52:38.399Z,101857.03
2019-05-12T01:55:07.971Z,101864.22
2019-05-12T01:57:34.742Z,101873.00
2019-05-12T02:00:01.891Z,101875.70
2019-05-12T02:02:28.726Z,101874.29
2019-05-12T02:05:03.501Z,101881.23
2019-05-12T02:07:32.701Z,101882.66
2019-05-12T02:09:59.515Z,101875.24
2019-05-12T02:12:28.737Z,101882.34
2019-05-12T02:14:54.890Z,101880.98
2019-05-12T02:17:21.970Z,101892.09
2019-05-12T02:19:48.772Z,101895.64
2019-05-12T02:22:15.436Z,101896.34
2019-05-12T02:24:42.239Z,101900.52
2019-05-12T02:27:08.921Z,101905.08
2019-05-12T02:29:35.733Z,101906.66
2019-05-12T02:32:02.820Z,101905.38
2019-05-12T02:34:29.496Z,101909.13
2019-05-12T02:36:56.320Z,101910.19
2019-05-12T02:39:24.890Z,101907.31
2019-05-12T02:41:54.219Z,101908.73
2019-05-12T02:44:20.424Z,101906.28
2019-05-12T02:46:47.137Z,101912.34
2019-05-12T02:49:15.664Z,101912.05
2019-05-12T02:51:45.565Z,101915.59
2019-05-12T02:54:14.380Z,101857.25
2019-05-12T02:56:44.909Z,101924.92
2019-05-12T02:59:11.184Z,101924.63
2019-05-12T03:01:39.717Z,101862.22
2019-05-12T03:04:07.545Z,101926.26
2019-05-12T03:06:36.261Z,101927.38
2019-05-12T03:09:06.131Z,101934.56
2019-05-12T03:11:35.454Z,101929.83
2019-05-12T03:14:04.059Z,101938.36
2019-05-12T03:16:34.646Z,101935.75
2019-05-12T03:18:59.752Z,101939.67
2019-05-12T03:21:26.462Z,101941.05
2019-05-12T03:23:55.107Z,101941.78
2019-05-12T03:26:24.673Z,101942.78
2019-05-12T03:28:50.433Z,101952.74
2019-05-12T03:31:23.678Z,101949.72
2019-05-12T03:33:52.513Z,101949.92
2019-05-12T03:36:17.827Z,101951.01
2019-05-12T03:38:45.014Z,101954.21
2019-05-12T03:41:14.724Z,101951.91
2019-05-12T03:43:44.920Z,101959.67
2019-05-12T03:46:15.196Z,101961.26
2019-05-12T03:48:50.230Z,101967.10
2019-05-12T03:51:20.332Z,101975.38
2019-05-12T03:53:51.331Z,101975.23
2019-05-12T03:56:20.948Z,101975.90
2019-05-12T03:58:54.140Z,101976.94
2019-05-12T04:01:45.166Z,101983.52
2019-05-12T04:04:16.005Z,101978.49
2019-05-12T04:06:46.486Z,101983.59
2019-05-12T04:09:16.743Z,101987.08
2019-05-12T04:11:46.516Z,101992.72
2019-05-12T04:14:18.425Z,102003.33
2019-05-12T04:16:48.656Z,101998.42
2019-05-12T04:19:18.811Z,102003.54
2019-05-12T04:21:48.961Z,102018.27
2019-05-12T04:24:18.949Z,102014.81
2019-05-12T04:26:48.542Z,102019.25
2019-05-12T04:29:18.180Z,102021.36
2019-05-12T04:31:47.193Z,102028.59
2019-05-12T04:34:38.886Z,102039.20
2019-05-12T04:37:09.184Z,102035.92
2019-05-12T04:39:39.147Z,102037.20
2019-05-12T04:42:08.367Z,102045.35
2019-05-12T04:44:38.231Z,102043.25
2019-05-12T04:47:07.637Z,102046.22
2019-05-12T04:49:37.596Z,102049.33
2019-05-12T04:52:07.168Z,102058.16
2019-05-12T04:54:36.569Z,102061.73
2019-05-12T04:57:06.686Z,102075.09
2019-05-12T04:59:36.178Z,102078.23
2019-05-12T05:02:06.451Z,102087.16
2019-05-12T05:04:36.957Z,102083.70
2019-05-12T05:07:09.111Z,102096.30
2019-05-12T05:09:39.186Z,102096.25
2019-05-12T05:12:06.241Z,102105.48
2019-05-12T05:14:34.060Z,102100.19
2019-05-12T05:17:00.962Z,102101.80
2019-05-12T05:19:27.737Z,102104.59
2019-05-12T05:21:54.414Z,102100.81
2019-05-12T05:24:23.375Z,102105.60
2019-05-12T05:26:49.808Z,102108.43
2019-05-12T05:29:16.590Z,102108.89
2019-05-12T05:31:44.179Z,102105.87
2019-05-12T05:34:11.454Z,102110.12
2019-05-12T05:36:38.137Z,102109.30
2019-05-12T05:39:06.518Z,102113.13
2019-05-12T05:41:34.573Z,102116.93
2019-05-12T05:44:03.126Z,102128.23
2019-05-12T05:46:30.418Z,102134.16
2019-05-12T05:48:57.106Z,102124.25
2019-05-12T05:51:23.907Z,102129.78
2019-05-12T05:53:51.968Z,102128.61
2019-05-12T05:56:19.777Z,102148.59
2019-05-12T05:58:51.649Z,102146.40
2019-05-12T06:01:15.043Z,102142.52
2019-05-12T06:03:43.854Z,102150.55
2019-05-12T06:06:12.496Z,102158.05
2019-05-12T06:08:39.366Z,102157.70
2019-05-12T06:11:08.560Z,102160.51
2019-05-12T06:13:34.686Z,102162.80
2019-05-12T06:16:01.556Z,102171.93
2019-05-12T06:18:29.108Z,102172.80
2019-05-12T06:20:55.917Z,102168.09
2019-05-12T06:23:24.059Z,102176.98
2019-05-12T06:25:51.735Z,102178.69
2019-05-12T06:28:20.499Z,102178.33
2019-05-12T06:30:50.072Z,102177.06
2019-05-12T06:33:15.864Z,102177.66
2019-05-12T06:35:45.117Z,102189.60
2019-05-12T06:38:13.422Z,102191.86
2019-05-12T06:40:42.334Z,102202.32
2019-05-12T06:43:08.458Z,102195.62
2019-05-12T06:45:41.894Z,102201.42
2019-05-12T06:48:04.089Z,102204.64
2019-05-12T06:50:37.041Z,102202.56
2019-05-12T06:52:59.858Z,102204.94
2019-05-12T06:55:28.683Z,102202.72
2019-05-12T06:57:56.446Z,102216.66
2019-05-12T07:00:30.852Z,102222.16
2019-05-12T07:02:55.285Z,102225.34
2019-05-12T07:05:23.243Z,102231.86
2019-05-12T07:07:50.122Z,102232.37
2019-05-12T07:10:35.807Z,102234.59
2019-05-12T07:12:59.022Z,102234.77
2019-05-12T07:15:14.497Z,102238.41
2019-05-12T07:18:04.431Z,102244.10
2019-05-12T07:20:35.417Z,102255.49
2019-05-12T07:22:59.854Z,102254.29
2019-05-12T07:25:31.113Z,102262.08
2019-05-12T07:28:00.809Z,102265.08
2019-05-12T07:30:26.767Z,102263.98
2019-05-12T07:32:59.690Z,102264.84
2019-05-12T07:35:24.042Z,102281.19
2019-05-12T07:37:53.449Z,102269.03
2019-05-12T07:40:25.376Z,102274.66
2019-05-12T07:42:51.001Z,102272.38
2019-05-12T07:45:22.311Z,102279.22
2019-05-12T07:47:46.482Z,102276.84
2019-05-12T07:50:18.257Z,102280.04
2019-05-12T07:52:44.178Z,102276.31
2019-05-12T07:55:10.825Z,102277.96
2019-05-12T07:57:50.870Z,102277.96
2019-05-12T08:00:11.522Z,102280.19
2019-05-12T08:02:35.823Z,102273.80
2019-05-12T08:05:03.866Z,102268.89
2019-05-12T08:07:30.769Z,102288.39
2019-05-12T08:09:57.562Z,102288.39
2019-05-12T08:12:24.406Z,102292.92
2019-05-12T08:14:51.050Z,102292.53
2019-05-12T08:17:19.647Z,102298.48
2019-05-12T08:19:46.424Z,102295.06
2019-05-12T08:22:13.633Z,102304.13
2019-05-12T08:24:42.983Z,102295.61
2019-05-12T08:27:09.210Z,102295.61
2019-05-12T08:29:35.909Z,102285.20
2019-05-12T08:32:03.776Z,102299.91
2019-05-12T08:34:30.706Z,102300.76
2019-05-12T08:36:58.179Z,102300.76
2019-05-12T08:39:25.990Z,102298.48
2019-05-12T08:41:53.501Z,102298.98
2019-05-12T08:44:24.665Z,102298.98
2019-05-12T08:46:53.457Z,102306.52
2019-05-12T08:49:18.949Z,102305.27
2019-05-12T08:51:49.618Z,102313.95
2019-05-12T08:54:14.321Z,102321.64
2019-05-12T08:56:40.961Z,102327.05
2019-05-12T08:59:09.517Z,102327.42
2019-05-12T09:01:36.370Z,102313.34
2019-05-12T09:04:06.578Z,102334.09
2019-05-12T09:06:34.153Z,102323.88
2019-05-12T09:09:03.374Z,102333.45
2019-05-12T09:11:29.682Z,102333.67
2019-05-12T09:14:00.465Z,102332.56
2019-05-12T09:16:24.988Z,102334.44
2019-05-12T09:18:51.685Z,102331.16
2019-05-12T09:21:25.309Z,102350.92
2019-05-12T09:23:46.991Z,102352.70
2019-05-12T09:26:13.675Z,102347.40
2019-05-12T09:28:49.232Z,102356.31
2019-05-12T09:31:09.325Z,102345.45
2019-05-12T09:33:36.065Z,102356.91
2019-05-12T09:36:04.350Z,102349.31
2019-05-12T09:38:33.142Z,102348.47
2019-05-12T09:41:01.072Z,102350.01
2019-05-12T09:43:28.517Z,102364.69
2019-05-12T09:45:56.407Z,102369.13
2019-05-12T09:48:24.676Z,102373.63
2019-05-12T09:51:00.477Z,102371.61
2019-05-12T09:53:23.762Z,102370.47
2019-05-12T09:55:50.131Z,102374.22
2019-05-12T09:58:23.111Z,102379.52
2019-05-12T10:00:45.511Z,102380.67
2019-05-12T10:03:13.869Z,102380.17
2019-05-12T10:05:41.455Z,102384.89
2019-05-12T10:08:08.311Z,102382.16
2019-05-12T10:10:40.067Z,102378.48
2019-05-12T10:13:05.123Z,102395.16
2019-05-12T10:15:33.194Z,102388.19
2019-05-12T10:18:05.307Z,102393.11
2019-05-12T10:20:29.076Z,102387.41
2019-05-12T10:22:57.515Z,102389.80
2019-05-12T10:25:28.382Z,102402.31
2019-05-12T10:27:53.239Z,102397.57
2019-05-12T10:30:20.154Z,102399.33
2019-05-12T10:32:46.867Z,102391.98
2019-05-12T10:35:20.857Z,102386.63
2019-05-12T10:37:44.381Z,102394.96
2019-05-12T10:40:13.889Z,102401.95
2019-05-12T10:42:46.105Z,102403.42
2019-05-12T10:45:10.783Z,102395.19
2019-05-12T10:47:38.667Z,102402.73
2019-05-12T10:50:05.983Z,102410.66
2019-05-12T10:52:35.102Z,102392.55
2019-05-12T10:55:01.470Z,102385.34
2019-05-12T10:57:28.264Z,102398.81
2019-05-12T10:59:54.977Z,102406.17
2019-05-12T11:02:26.554Z,102405.57
2019-05-12T11:04:50.431Z,102405.24
2019-05-12T11:07:23.016Z,102404.76
2019-05-12T11:09:47.042Z,102418.59
2019-05-12T11:12:13.888Z,102405.07
2019-05-12T11:14:43.846Z,102416.44
2019-05-12T11:17:11.100Z,102407.00
2019-05-12T11:19:40.656Z,102419.71
2019-05-12T11:22:06.556Z,102424.88
2019-05-12T11:24:33.789Z,102415.55
2019-05-12T11:27:00.734Z,102431.99
2019-05-12T11:29:27.425Z,102416.63
2019-05-12T11:31:54.456Z,102431.48
2019-05-12T11:34:21.127Z,102424.02
2019-05-12T11:36:47.862Z,102437.34
2019-05-12T11:39:14.571Z,102432.45
2019-05-12T11:41:44.346Z,102434.06
2019-05-12T11:44:10.596Z,102440.04
2019-05-12T11:46:37.331Z,102439.45
2019-05-12T11:49:04.395Z,102445.52
2019-05-12T11:51:31.196Z,102447.42
2019-05-12T11:53:57.873Z,102432.84
2019-05-12T11:56:24.683Z,102456.11
2019-05-12T11:58:52.062Z,102463.56
2019-05-12T12:01:24.236Z,102462.83
2019-05-12T12:03:50.650Z,102452.06
2019-05-12T12:06:17.341Z,102462.95
2019-05-12T12:08:44.265Z,102457.82
2019-05-12T12:11:18.171Z,102476.44
2019-05-12T12:13:39.628Z,102469.50
2019-05-12T12:16:11.244Z,102488.08
2019-05-12T12:18:35.138Z,102486.86
2019-05-12T12:21:04.147Z,102485.44
2019-05-12T12:23:33.451Z,102496.85
2019-05-12T12:26:00.233Z,102496.42
2019-05-12T12:28:27.015Z,102480.91
2019-05-12T12:30:56.848Z,102484.83
2019-05-12T12:33:23.454Z,102491.08
2019-05-12T12:35:55.559Z,102502.25
2019-05-12T12:38:19.120Z,102495.67
2019-05-12T12:40:45.914Z,102496.05
2019-05-12T12:43:13.726Z,102497.71
2019-05-12T12:46:00.481Z,102518.44
2019-05-12T12:48:29.932Z,102514.66
2019-05-12T12:50:56.749Z,102504.80
2019-05-12T12:53:23.961Z,102518.15
2019-05-12T12:55:53.779Z,102531.49
2019-05-12T12:58:21.001Z,102523.48
2019-05-12T13:00:54.466Z,102518.11
2019-05-12T13:03:19.618Z,102521.56
2019-05-12T13:05:47.001Z,102530.59
2019-05-12T13:08:13.697Z,102533.75
2019-05-12T13:10:46.300Z,102522.55
2019-05-12T13:13:09.066Z,102527.50
2019-05-12T13:15:36.928Z,102535.41
2019-05-12T13:18:04.498Z,102530.70
2019-05-12T13:20:31.175Z,102523.16
2019-05-12T13:22:57.954Z,102532.52
2019-05-12T13:25:25.015Z,102536.20
2019-05-12T13:27:53.452Z,102535.83
2019-05-12T13:30:21.581Z,102531.54
2019-05-12T13:32:49.327Z,102534.17
2019-05-12T13:35:19.817Z,102549.17
2019-05-12T13:37:44.814Z,102542.56
2019-05-12T13:40:11.734Z,102548.14
2019-05-12T13:42:38.538Z,102553.81
2019-05-12T13:45:05.912Z,102554.39
2019-05-12T13:47:35.443Z,102550.17
2019-05-12T13:50:03.898Z,102551.20
2019-05-12T13:52:30.620Z,102553.52
2019-05-12T13:55:00.241Z,102552.45
2019-05-12T13:57:25.960Z,102557.50
2019-05-12T13:59:53.688Z,102565.83
2019-05-12T14:02:22.340Z,102561.51
2019-05-12T14:04:49.776Z,102577.83
2019-05-12T14:07:20.108Z,102569.48
2019-05-12T14:09:45.145Z,102570.16
2019-05-12T14:12:13.570Z,102575.83
2019-05-12T14:14:40.458Z,102578.33
2019-05-12T14:17:07.157Z,102580.12
2019-05-12T14:19:35.719Z,102582.86
2019-05-12T14:22:03.546Z,102584.88
2019-05-12T14:24:33.157Z,102598.38
2019-05-12T14:26:59.069Z,102599.77
2019-05-12T14:29:30.434Z,102604.09
2019-05-12T14:32:01.698Z,102593.72
2019-05-12T14:34:23.603Z,102591.63
2019-05-12T14:36:50.534Z,102593.01
2019-05-12T14:39:17.220Z,102600.70
2019-05-12T14:41:52.924Z,102602.78
2019-05-12T14:44:13.832Z,102597.89
2019-05-12T14:46:48.681Z,102597.39
2019-05-12T14:49:09.443Z,102603.05
2019-05-12T14:51:36.141Z,102598.20
2019-05-12T14:54:04.039Z,102599.21
2019-05-12T14:56:30.769Z,102606.84
2019-05-12T14:59:00.645Z,102606.53
2019-05-12T15:01:38.695Z,102603.83
2019-05-12T15:03:54.615Z,102614.36
2019-05-12T15:06:25.708Z,102616.55
2019-05-12T15:08:49.964Z,102612.97
2019-05-12T15:11:16.635Z,102610.80
2019-05-12T15:13:43.750Z,102608.17
2019-05-12T15:16:10.535Z,102618.52
2019-05-12T15:18:39.440Z,102624.52
2019-05-12T15:21:05.838Z,102610.88
2019-05-12T15:23:37.129Z,102612.38
2019-05-12T15:26:01.126Z,102621.98
2019-05-12T15:28:27.913Z,102629.56
2019-05-12T15:30:54.597Z,102618.67
2019-05-12T15:33:21.339Z,102623.73
2019-05-12T15:35:48.038Z,102624.52
2019-05-12T15:38:16.809Z,102631.90
2019-05-12T15:40:44.008Z,102625.79
2019-05-12T15:43:10.713Z,102633.66
2019-05-12T15:45:38.022Z,102641.66
2019-05-12T15:48:04.801Z,102631.94
2019-05-12T15:50:34.040Z,102635.27
2019-05-12T15:53:00.171Z,102643.22
2019-05-12T15:55:32.964Z,102636.98
2019-05-12T15:57:55.593Z,102645.80
2019-05-12T16:00:24.316Z,102643.37
2019-05-12T16:02:53.381Z,102635.60
2019-05-12T16:05:25.386Z,102632.25
2019-05-12T16:07:48.758Z,102652.69
2019-05-12T16:10:15.997Z,102653.43
2019-05-12T16:12:43.598Z,102648.19
2019-05-12T16:15:16.980Z,102674.67
2019-05-12T16:17:40.115Z,102672.16
2019-05-12T16:20:07.043Z,102658.03
2019-05-12T16:22:37.281Z,102667.63
2019-05-12T16:25:04.383Z,102672.30
2019-05-12T16:27:35.579Z,102666.14
2019-05-12T16:30:00.614Z,102678.76
2019-05-12T16:32:39.474Z,102668.25
2019-05-12T16:34:56.400Z,102663.09
2019-05-12T16:37:31.320Z,102671.42
2019-05-12T16:39:53.641Z,102675.70
2019-05-12T16:42:20.523Z,102678.23
2019-05-12T16:44:47.219Z,102680.66
2019-05-12T16:47:18.644Z,102689.70
2019-05-12T16:49:44.603Z,102692.31
2019-05-12T16:52:13.710Z,102697.82
2019-05-12T16:54:40.286Z,102706.50
2019-05-12T16:57:12.906Z,102702.47
2019-05-12T16:59:35.905Z,102703.34
2019-05-12T17:02:05.585Z,102712.20
2019-05-12T17:04:33.348Z,102711.17
2019-05-12T17:07:00.503Z,102707.77
2019-05-12T17:09:29.657Z,102705.92
2019-05-12T17:11:56.305Z,102702.89
2019-05-12T17:14:23.583Z,102695.91
2019-05-12T17:16:54.212Z,102717.41
2019-05-12T17:19:23.094Z,102726.36
2019-05-12T17:21:55.493Z,102724.91
2019-05-12T17:24:18.538Z,102725.69
2019-05-12T17:26:45.366Z,102725.88
2019-05-12T17:29:13.667Z,102725.72
2019-05-12T17:31:40.601Z,102728.09
2019-05-12T17:34:09.065Z,102724.64
2019-05-12T17:36:36.102Z,102725.63
2019-05-12T17:39:06.569Z,102730.07
2019-05-12T17:41:40.237Z,102734.23
2019-05-12T17:44:04.227Z,102741.06
2019-05-12T17:46:32.322Z,102739.38
2019-05-12T17:49:00.058Z,102748.06
2019-05-12T17:51:30.961Z,102751.16
2019-05-12T17:53:55.877Z,102755.11
2019-05-12T17:56:25.120Z,102754.38
2019-05-12T17:58:51.302Z,102754.38
2019-05-12T18:01:22.951Z,102762.48
2019-05-12T18:03:50.527Z,102759.78
2019-05-12T18:06:20.349Z,102759.78
2019-05-12T18:08:44.873Z,102769.75
2019-05-12T18:11:13.668Z,102779.20
2019-05-12T18:13:40.344Z,102779.20
2019-05-12T18:16:11.630Z,102786.72
2019-05-12T18:18:38.260Z,102780.56
2019-05-12T18:21:04.826Z,102787.07
2019-05-12T18:23:31.497Z,102784.89
2019-05-12T18:26:03.198Z,102797.31
2019-05-12T18:28:27.805Z,102797.31
2019-05-12T18:30:55.481Z,102797.52
2019-05-12T18:33:32.610Z,102792.91
2019-05-12T18:35:50.996Z,102798.69
2019-05-12T18:38:22.962Z,102798.69
2019-05-12T18:40:46.707Z,102800.48
2019-05-12T18:43:14.174Z,102812.29
2019-05-12T18:45:40.976Z,102812.29
2019-05-12T18:48:16.598Z,102805.61
2019-05-12T18:50:36.574Z,102805.61
2019-05-12T18:53:03.357Z,102814.61
2019-05-12T18:55:35.746Z,102817.77
2019-05-12T18:57:58.630Z,102819.33
2019-05-12T19:00:26.054Z,102822.19
2019-05-12T19:02:54.465Z,102818.53
2019-05-12T19:05:27.546Z,102821.86
2019-05-12T19:07:50.165Z,102821.67
2019-05-12T19:10:17.042Z,102830.26
2019-05-12T19:12:44.199Z,102836.91
2019-05-12T19:15:17.324Z,102831.02
2019-05-12T19:17:40.164Z,102833.42
2019-05-12T19:20:07.593Z,102837.89
2019-05-12T19:22:39.241Z,102833.79
2019-05-12T19:25:04.043Z,102840.83
2019-05-12T19:27:30.821Z,102840.96
2019-05-12T19:29:57.613Z,102844.86
2019-05-12T19:32:27.972Z,102860.87
2019-05-12T19:34:54.619Z,102856.11
2019-05-12T19:37:26.501Z,102861.88
2019-05-12T19:39:50.244Z,102869.16
2019-05-12T19:42:20.317Z,102872.10
2019-05-12T19:44:45.603Z,102870.95
2019-05-12T19:47:13.742Z,102874.87
2019-05-12T19:49:47.936Z,102878.96
2019-05-12T19:52:09.159Z,102875.59
2019-05-12T19:54:36.874Z,102877.88
2019-05-12T19:57:04.501Z,102875.91
2019-05-12T19:59:31.453Z,102875.71
2019-05-12T20:01:59.132Z,102876.00
2019-05-12T20:04:33.162Z,102875.55
2019-05-12T20:06:54.624Z,102882.08
2019-05-12T20:09:24.355Z,102874.48
2019-05-12T20:11:53.567Z,102880.72
2019-05-12T20:14:21.474Z,102870.75
2019-05-12T20:16:48.923Z,102879.78
2019-05-12T20:19:19.880Z,102883.66
2019-05-12T20:21:44.398Z,102883.09
2019-05-12T20:24:11.084Z,102882.10
2019-05-12T20:26:38.698Z,102886.86
2019-05-12T20:29:06.794Z,102881.63
2019-05-12T20:31:37.454Z,102879.82
2019-05-12T20:34:06.195Z,102881.92
2019-05-12T20:36:33.472Z,102886.38
2019-05-12T20:39:00.352Z,102891.92
2019-05-12T20:41:27.141Z,102890.89
2019-05-12T20:43:53.813Z,102886.87
2019-05-12T20:46:25.629Z,102892.45
2019-05-12T20:48:49.305Z,102894.59
2019-05-12T20:51:20.163Z,102889.98
2019-05-12T20:53:46.224Z,102900.71
2019-05-12T20:56:20.008Z,102896.66
2019-05-12T20:58:45.861Z,102902.02
2019-05-12T21:01:10.437Z,102886.06
2019-05-12T21:03:39.846Z,102904.11
2019-05-12T21:06:05.976Z,102908.92
2019-05-12T21:08:33.883Z,102908.97
2019-05-12T21:11:00.930Z,102919.33
2019-05-12T21:13:31.739Z,102918.98
2019-05-12T21:15:56.646Z,102911.92
2019-05-12T21:18:23.848Z,102914.83
2019-05-12T21:20:52.326Z,102911.28
2019-05-12T21:23:19.302Z,102915.71
2019-05-12T21:25:52.521Z,102922.90
2019-05-12T21:28:15.013Z,102920.21
2019-05-12T21:30:42.429Z,102917.72
2019-05-12T21:33:10.442Z,102921.59
2019-05-12T21:35:40.864Z,102928.59
2019-05-12T21:38:05.998Z,102932.81
2019-05-12T21:40:34.942Z,102936.58
2019-05-12T21:43:04.027Z,102930.25
2019-05-12T21:45:31.121Z,102942.64
2019-05-12T21:47:57.894Z,102942.30
2019-05-12T21:50:32.495Z,102941.03
2019-05-12T21:52:57.049Z,102945.91
2019-05-12T21:55:26.073Z,102944.57
2019-05-12T21:57:50.529Z,102949.68
2019-05-12T22:00:24.697Z,102954.55
2019-05-12T22:02:56.410Z,102952.45
2019-05-12T22:05:37.314Z,102958.71
2019-05-12T22:07:50.718Z,102956.44
2019-05-12T22:10:25.237Z,102956.25
2019-05-12T22:12:46.142Z,102956.98
2019-05-12T22:15:21.281Z,102956.27
2019-05-12T22:18:00.621Z,102960.19
2019-05-12T22:20:29.181Z,102957.36
2019-05-12T22:23:00.674Z,102955.55
2019-05-12T22:25:24.542Z,102957.53
2019-05-12T22:27:53.745Z,102961.08
2019-05-12T22:30:21.087Z,102968.73
2019-05-12T22:32:47.768Z,102965.34
2019-05-12T22:35:21.642Z,102977.55
2019-05-12T22:37:45.047Z,102977.23
2019-05-12T22:40:17.825Z,102979.41
2019-05-12T22:42:41.596Z,102973.21
2019-05-12T22:45:08.715Z,102978.55
2019-05-12T22:47:35.576Z,102982.09
2019-05-12T22:50:04.220Z,102984.80
2019-05-12T22:52:31.024Z,102989.44
2019-05-12T22:54:57.690Z,102984.59
2019-05-12T22:57:28.927Z,102989.22
2019-05-12T22:59:53.237Z,102990.19
2019-05-12T23:02:25.377Z,102992.59
2019-05-12T23:04:48.613Z,102990.62
2019-05-12T23:07:19.147Z,102986.52
2019-05-12T23:09:43.962Z,102988.34
2019-05-12T23:12:18.480Z,102989.42
2019-05-12T23:14:39.333Z,102992.45
2019-05-12T23:17:07.509Z,102991.38
2019-05-12T23:19:35.398Z,102995.84
2019-05-12T23:22:03.552Z,102992.83
2019-05-12T23:24:39.197Z,103000.66
2019-05-12T23:26:59.934Z,102996.55
2019-05-12T23:29:30.866Z,102997.36
2019-05-12T23:31:55.311Z,102991.70
2019-05-12T23:34:23.967Z,102994.18
2019-05-12T23:36:56.591Z,102985.70
2019-05-12T23:39:19.365Z,102989.23
2019-05-12T23:41:46.132Z,102987.28
2019-05-12T23:44:13.518Z,102996.89
2019-05-12T23:46:40.572Z,102994.06
2019-05-12T23:49:07.366Z,102998.14
2019-05-12T23:51:34.189Z,102986.02
2019-05-12T23:54:00.890Z,102983.73
2019-05-12T23:56:27.650Z,102985.31
2019-05-12T23:58:54.321Z,102985.50
